Old Res Weather

Lexington, Massachusetts, USA

55°F
5/15/2021 7:07am 
  • Lexington Conditions: Few Clouds
  • Temperature: 54.9°F / 12.7°CWarmer 2.4°F than last hour.
  • Dew Point: 45.3°FIncreased 2.0°Fsince last hour.
  • Relative Humidity: 70%Decreased 1.0% since last hour.
  • Wind: Calm, 10-min avg: Calm, gust: None
  • Barometer: 30.22 in Steady
  • Visibility: 10 miles
  • Rain Today: 0.00 in
  • UV Index: $VPuv None
  •   

Nearby Reports - Official Weather Stations - Current Conditions

Data from the National Weather Service

KBED - Bedford, Massachusetts, USA


Distance from station: NW 4mi, 6km

Updated Sat May 15, 2021 6:51am EDT

Few Clouds

Few Clouds

Wind from calm

Wind:

Calm

Temperature: 57°F (14°C)

Dew Point: 46°F (8°C)

Humidity: 67%

Barometer: 30.18 in (1022 hPa)

Clouds: Few Clouds

Visibility: 10 miles (16 km)

Cloud details: Few Clouds 7500 ft


2021/05/15 10:51 KBED 151051Z 00000KT 10SM FEW075 14/08 A3018 RMK AO2 SLP233 T01390078

KBOS - Boston, Massachusetts, USA


Distance from station: ESE 13mi, 20km

Updated Sat May 15, 2021 6:54am EDT

Mostly cloudy

Mostly cloudy

Wind from NW

Wind:

NW 5 mph, 7 km/h

Temperature: 64°F (18°C)

Dew Point: 39°F (4°C)

Humidity: 40%

Barometer: 30.19 in (1022.4 hPa)

Clouds: Mostly cloudy

Visibility: 10 miles (16 km)

Cloud details: Few Clouds 7000 ft
Mostly cloudy 14000 ft


2021/05/15 10:54 KBOS 151054Z 31004KT 10SM FEW070 BKN140 18/04 A3019 RMK AO2 SLP224 VIRGA ALQDS T01780039

KOWD - Norwood, Massachusetts, USA


Distance from station: SSE 18mi, 29km

Updated Sat May 15, 2021 6:53am EDT

Clear

Clear

Wind from calm

Wind:

Calm

Temperature: 50°F (10°C)

Dew Point: 45°F (7°C)

Humidity: 82%

Barometer: 30.20 in (1022.7 hPa)

Clouds: Clear

Visibility: 10 miles (16 km)


2021/05/15 10:53 KOWD 151053Z 00000KT 10SM CLR 10/07 A3020 RMK AO2 SLP225 T01000067

KBVY - Beverly, Massachusetts, USA


Distance from station: ENE 20mi, 32km

Updated Sat May 15, 2021 6:53am EDT

Clear

Clear

Wind from calm

Wind:

Calm

Temperature: 48°F (9°C)

Dew Point: 46°F (8°C)

Humidity: 94%

Barometer: 30.18 in (1022 hPa)

Clouds: Clear

Visibility: 10 miles (16 km)


2021/05/15 10:53 KBVY 151053Z 00000KT 10SM CLR 09/08 A3018 RMK AO2 SLP216 T00940078

KLWM - Lawrence, Massachusetts, USA


Distance from station: NNE 20mi, 33km

Updated Sat May 15, 2021 6:54am EDT

Clear

Clear

Wind from SSW

Wind:

SSW 3 mph, 6 km/h

Temperature: 54°F (12°C)

Dew Point: 45°F (7°C)

Humidity: 72%

Barometer: 30.21 in (1023 hPa)

Clouds: Clear

Visibility: 10 miles (16 km)


2021/05/15 10:54 KLWM 151054Z 20003KT 10SM CLR 12/07 A3021 RMK AO2 SLP229 T01170067

KFIT - Fitchburg, Massachusetts, USA


Distance from station: WNW 27mi, 43km

Updated Sat May 15, 2021 6:52am EDT

Clear

Clear

Wind from N

Wind:

N 6 mph, 9 km/h

Temperature: 55°F (13°C)

Dew Point: 41°F (5°C)

Humidity: 59%

Barometer: 30.21 in (1023 hPa)

Clouds: Clear

Visibility: 10 miles (16 km)


2021/05/15 10:52 KFIT 151052Z AUTO 36005KT 10SM CLR 13/05 A3021 RMK AO2 SLP229 T01330050

KASH - Nashua/Boire Fld, New Hampshire, USA


Distance from station: NNW 28mi, 45km

Updated Sat May 15, 2021 6:56am EDT

Clear

Clear

Wind from NW

Wind:

NW 3 mph, 6 km/h

Temperature: 50°F (10°C)

Dew Point: 45°F (7°C)

Humidity: 82%

Barometer: 30.21 in (1023 hPa)

Clouds: Clear

Visibility: 10 miles (16 km)


2021/05/15 10:56 KASH 151056Z 32003KT 10SM CLR 10/07 A3021 RMK AO2 SLP234 T01000072

KORH - Worcester, Massachusetts, USA


Distance from station: WSW 34mi, 54km

Updated Sat May 15, 2021 6:54am EDT

Mostly cloudy

Mostly cloudy

Wind from NW

Wind:

NW 9 mph, 15 km/h

Temperature: 57°F (14°C)

Dew Point: 34°F (1°C)

Humidity: 41%

Barometer: 30.21 in (1023 hPa)

Clouds: Mostly cloudy

Visibility: 10 miles (16 km)

Cloud details: Mostly cloudy 12000 ft


2021/05/15 10:54 KORH 151054Z 31008KT 10SM BKN120 14/01 A3021 RMK AO2 SLP230 T01440011

KMHT - Manchester, New Hampshire, USA


Distance from station: NNW 36mi, 57km

Updated Sat May 15, 2021 6:53am EDT

Few Clouds

Few Clouds

Wind from NNW

Wind:

NNW 5 mph, 7 km/h

Temperature: 52°F (11°C)

Dew Point: 41°F (5°C)

Humidity: 67%

Barometer: 30.19 in (1022.4 hPa)

Clouds: Few Clouds

Visibility: 10 miles (16 km)

Cloud details: Few Clouds 10000 ft


2021/05/15 10:53 KMHT 151053Z 33004KT 10SM FEW100 11/05 A3019 RMK AO2 SLP235 T01110050

KGHG - Marshfield, Massachusetts, USA


Distance from station: SE 38mi, 60km

Updated Sat May 15, 2021 6:55am EDT

Clear

Clear

Wind from calm

Wind:

Calm

Temperature: 55°F (13°C)

Dew Point: 46°F (8°C)

Humidity: 72%

Barometer: 30.18 in (1022 hPa)

Clouds: Clear

Visibility: 10 miles (16 km)


2021/05/15 10:55 KGHG 151055Z AUTO 00000KT 10SM CLR 13/08 A3018 RMK AO2 PWINO TSNO

KSFZ - Pawtucket, Rhode Island, USA


Distance from station: SSW 38mi, 61km

Updated Sat May 15, 2021 6:56am EDT

Haze, Clear

Haze, Clear

Wind from W

Wind:

W 3 mph, 6 km/h

Temperature: 55°F (13°C)

Dew Point: 39°F (4°C)

Humidity: 55%

Barometer: 30.20 in (1022.7 hPa)

Summary: Haze

Clouds: Clear

Visibility: 4 miles (6 km)


2021/05/15 10:56 KSFZ 151056Z AUTO 27003KT 4SM HZ CLR 13/04 A3020 RMK AO2 SLP234 T01280044 $

KTAN - Taunton, Massachusetts, USA


Distance from station: SSE 40mi, 64km

Updated Sat May 15, 2021 6:52am EDT

Clear

Clear

Wind from calm

Wind:

Calm

Temperature: 48°F (9°C)

Dew Point: 45°F (7°C)

Humidity: 87%

Barometer: 30.19 in (1022.4 hPa)

Clouds: Clear

Visibility: 10 miles (16 km)


2021/05/15 10:52 KTAN 151052Z AUTO 00000KT 10SM CLR 09/07 A3019 RMK AO2 SLP224 T00940072 $

KPYM - Plymouth, Massachusetts, USA


Distance from station: SE 44mi, 71km

Updated Sat May 15, 2021 6:52am EDT

Clear

Clear

Wind from calm

Wind:

Calm

Temperature: 52°F (11°C)

Dew Point: 45°F (7°C)

Humidity: 77%

Barometer: 30.19 in (1022.4 hPa)

Clouds: Clear

Visibility: 10 miles (16 km)


2021/05/15 10:52 KPYM 151052Z AUTO 00000KT 10SM CLR 11/07 A3019 RMK AO2 SLP222 T01060072

KAFN - Jaffrey, New Hampshire, USA


Distance from station: WNW 46mi, 74km

Updated Fri May 14, 2021 11:52pm EDT (NOT Current)

Clear

Clear

Wind from S

Wind:

S 5 mph, 7 km/h

Temperature: 46°F (8°C)

Wind Chill: 44°F (7°C)

Dew Point: 41°F (5°C)

Humidity: 82%

Barometer: 30.17 in (1021.7 hPa)

Clouds: Clear

Visibility: 10 miles (16 km)


2021/05/15 03:52 KAFN 150352Z AUTO 18004KT 10SM CLR 08/05 A3017 RMK AO2 SLP222 T00830050

KPSM - Portsmouth/Pease, New Hampshire, USA


Distance from station: NNE 49mi, 78km

Updated Sat May 15, 2021 6:56am EDT

Few Clouds

Few Clouds

Wind from NW

Wind:

NW 5 mph, 7 km/h

Temperature: 54°F (12°C)

Dew Point: 41°F (5°C)

Humidity: 63%

Barometer: 30.20 in (1022.7 hPa)

Clouds: Few Clouds

Visibility: 10 miles (16 km)

Cloud details: Few Clouds 12000 ft


2021/05/15 10:56 KPSM 151056Z 31004KT 10SM FEW120 12/05 A3020 RMK AO2A SLP229 T01180052

KPVD - Providence/Green, Rhode Island, USA


Distance from station: S 51mi, 81km

Updated Sat May 15, 2021 6:51am EDT

Few Clouds

Few Clouds

Wind from W

Wind:

W 3 mph, 6 km/h

Temperature: 57°F (14°C)

Dew Point: 39°F (4°C)

Humidity: 51%

Barometer: 30.20 in (1022.7 hPa)

Clouds: Few Clouds

Visibility: 10 miles (16 km)

Cloud details: Few Clouds 6500 ft


2021/05/15 10:51 KPVD 151051Z 26003KT 10SM FEW065 14/04 A3020 RMK AO2 SLP227 T01390044

KORE - Orange, Massachusetts, USA


Distance from station: W 54mi, 86km

Updated Sat May 15, 2021 6:52am EDT

Clear

Clear

Wind from calm

Wind:

Calm

Temperature: 46°F (8°C)

Dew Point: 43°F (6°C)

Humidity: 87%

Barometer: 30.24 in (1024 hPa)

Clouds: Clear

Visibility: 10 miles (16 km)


2021/05/15 10:52 KORE 151052Z AUTO 00000KT 10SM CLR 08/06 A3024 RMK AO2 SLP240 T00830061

KEWB - New Bedford, Massachusetts, USA


Distance from station: SSE 54mi, 87km

Updated Sat May 15, 2021 6:53am EDT

Clear

Clear

Wind from calm

Wind:

Calm

Temperature: 52°F (11°C)

Dew Point: 43°F (6°C)

Humidity: 72%

Barometer: 30.19 in (1022.4 hPa)

Clouds: Clear

Visibility: 10 miles (16 km)


2021/05/15 10:53 KEWB 151053Z 00000KT 10SM CLR 11/06 A3019 RMK AO2 SLP222 T01060061

KCON - Concord, New Hampshire, USA


Distance from station: NNW 54mi, 88km

Updated Fri May 14, 2021 11:51pm EDT (NOT Current)

Mostly cloudy

Mostly cloudy

Wind from calm

Wind:

Calm

Temperature: 52°F (11°C)

Dew Point: 39°F (4°C)

Humidity: 62%

Barometer: 30.15 in (1021 hPa)

Clouds: Mostly cloudy

Visibility: 10 miles (16 km)

Cloud details: Mostly cloudy 11000 ft


2021/05/15 03:51 KCON 150351Z AUTO 00000KT 10SM BKN110 11/04 A3015 RMK AO2 SLP209 T01060039

KMWN - Mount Washington, New Hampshire, USA


Distance from station: N 127mi, 204km

Updated Sat May 15, 2021 6:54am EDT

Partly cloudy

Partly cloudy

Wind from NW

Wind:

NW 21 mph, 33 km/h

Temperature: 37°F (3°C)

Wind Chill: 26°F (-3°C)

Dew Point: 30°F (-1°C)

Humidity: 75%

Clouds: Partly cloudy

Visibility: 70 miles (112 km)

Cloud details: Few Clouds 4000 ft
Few Clouds 7000 ft
Partly cloudy 25000 ft


2021/05/15 10:54 KMWN 151054Z 31018KT 70SM FEW040 FEW070 SCT250 03/M01 RMK PTCHY VLY FG NE